sensor_id;sensor_type;location;lat;lon;timestamp;temperature;humidity
61004;DHT22;46889;37.310;13.582;2023-10-09T00:01:18;20.60;99.90
61004;DHT22;46889;37.310;13.582;2023-10-09T00:03:49;20.60;99.90
61004;DHT22;46889;37.310;13.582;2023-10-09T00:06:24;20.60;99.90
61004;DHT22;46889;37.310;13.582;2023-10-09T00:09:05;20.60;99.90
61004;DHT22;46889;37.310;13.582;2023-10-09T00:11:43;20.60;99.90
61004;DHT22;46889;37.310;13.582;2023-10-09T00:14:13;20.60;99.90
61004;DHT22;46889;37.310;13.582;2023-10-09T00:16:41;20.60;99.90
61004;DHT22;46889;37.310;13.582;2023-10-09T00:19:15;20.60;99.90
61004;DHT22;46889;37.310;13.582;2023-10-09T00:21:52;20.50;99.90
61004;DHT22;46889;37.310;13.582;2023-10-09T00:24:21;20.60;99.90
61004;DHT22;46889;37.310;13.582;2023-10-09T00:26:55;20.60;99.90
61004;DHT22;46889;37.310;13.582;2023-10-09T00:29:27;20.60;99.90
61004;DHT22;46889;37.310;13.582;2023-10-09T00:32:00;20.60;99.90
61004;DHT22;46889;37.310;13.582;2023-10-09T00:34:31;20.60;99.90
61004;DHT22;46889;37.310;13.582;2023-10-09T00:37:08;20.50;99.90
61004;DHT22;46889;37.310;13.582;2023-10-09T00:39:54;20.50;99.90
61004;DHT22;46889;37.310;13.582;2023-10-09T00:42:24;20.50;99.90
61004;DHT22;46889;37.310;13.582;2023-10-09T00:44:56;20.50;99.90
61004;DHT22;46889;37.310;13.582;2023-10-09T00:47:22;20.40;99.90
61004;DHT22;46889;37.310;13.582;2023-10-09T00:50:07;20.50;99.90
61004;DHT22;46889;37.310;13.582;2023-10-09T00:52:39;20.40;99.90
61004;DHT22;46889;37.310;13.582;2023-10-09T00:55:12;20.40;99.90
61004;DHT22;46889;37.310;13.582;2023-10-09T00:57:48;20.40;99.90
61004;DHT22;46889;37.310;13.582;2023-10-09T01:00:24;20.40;99.90
61004;DHT22;46889;37.310;13.582;2023-10-09T01:03:18;20.30;99.90
61004;DHT22;46889;37.310;13.582;2023-10-09T01:05:56;20.30;99.90
61004;DHT22;46889;37.310;13.582;2023-10-09T01:08:34;20.30;99.90
61004;DHT22;46889;37.310;13.582;2023-10-09T01:11:08;20.30;99.90
61004;DHT22;46889;37.310;13.582;2023-10-09T01:13:41;20.20;99.90
61004;DHT22;46889;37.310;13.582;2023-10-09T01:16:10;20.30;99.90
61004;DHT22;46889;37.310;13.582;2023-10-09T01:18:46;20.20;99.90
61004;DHT22;46889;37.310;13.582;2023-10-09T01:21:19;20.20;99.90
61004;DHT22;46889;37.310;13.582;2023-10-09T01:23:53;20.30;99.90
61004;DHT22;46889;37.310;13.582;2023-10-09T01:26:32;20.30;99.90
61004;DHT22;46889;37.310;13.582;2023-10-09T01:29:19;20.30;99.90
61004;DHT22;46889;37.310;13.582;2023-10-09T01:31:48;20.30;99.90
61004;DHT22;46889;37.310;13.582;2023-10-09T01:34:23;20.30;99.90
61004;DHT22;46889;37.310;13.582;2023-10-09T01:37:19;20.30;99.90
61004;DHT22;46889;37.310;13.582;2023-10-09T01:39:49;20.40;99.90
61004;DHT22;46889;37.310;13.582;2023-10-09T01:42:17;20.40;99.90
61004;DHT22;46889;37.310;13.582;2023-10-09T01:44:56;20.40;99.90
61004;DHT22;46889;37.310;13.582;2023-10-09T01:47:24;20.30;99.90
61004;DHT22;46889;37.310;13.582;2023-10-09T01:49:57;20.20;99.90
61004;DHT22;46889;37.310;13.582;2023-10-09T01:52:23;20.20;99.90
61004;DHT22;46889;37.310;13.582;2023-10-09T01:54:51;20.10;99.90
61004;DHT22;46889;37.310;13.582;2023-10-09T01:57:20;20.20;99.90
61004;DHT22;46889;37.310;13.582;2023-10-09T01:59:50;20.10;99.90
61004;DHT22;46889;37.310;13.582;2023-10-09T02:02:24;20.10;99.90
61004;DHT22;46889;37.310;13.582;2023-10-09T02:05:03;20.10;99.90
61004;DHT22;46889;37.310;13.582;2023-10-09T02:07:50;20.10;99.90
61004;DHT22;46889;37.310;13.582;2023-10-09T02:10:23;20.10;99.90
61004;DHT22;46889;37.310;13.582;2023-10-09T02:12:50;20.00;99.90
61004;DHT22;46889;37.310;13.582;2023-10-09T02:15:33;20.00;99.90
61004;DHT22;46889;37.310;13.582;2023-10-09T02:18:21;19.90;99.90
61004;DHT22;46889;37.310;13.582;2023-10-09T02:23:30;19.90;99.90
61004;DHT22;46889;37.310;13.582;2023-10-09T02:26:12;19.90;99.90
61004;DHT22;46889;37.310;13.582;2023-10-09T02:28:58;19.90;99.90
61004;DHT22;46889;37.310;13.582;2023-10-09T02:31:27;19.90;99.90
61004;DHT22;46889;37.310;13.582;2023-10-09T02:34:06;19.90;99.90
61004;DHT22;46889;37.310;13.582;2023-10-09T02:36:41;19.90;99.90
61004;DHT22;46889;37.310;13.582;2023-10-09T02:39:11;20.00;99.90
61004;DHT22;46889;37.310;13.582;2023-10-09T02:42:00;20.00;99.90
61004;DHT22;46889;37.310;13.582;2023-10-09T02:44:27;20.00;99.90
61004;DHT22;46889;37.310;13.582;2023-10-09T02:47:04;20.00;99.90
61004;DHT22;46889;37.310;13.582;2023-10-09T02:49:38;20.00;99.90
61004;DHT22;46889;37.310;13.582;2023-10-09T02:52:05;20.00;99.90
61004;DHT22;46889;37.310;13.582;2023-10-09T02:54:36;20.00;99.90
61004;DHT22;46889;37.310;13.582;2023-10-09T02:57:07;20.00;99.90
61004;DHT22;46889;37.310;13.582;2023-10-09T02:59:34;20.10;99.90
61004;DHT22;46889;37.310;13.582;2023-10-09T03:02:00;20.20;99.90
61004;DHT22;46889;37.310;13.582;2023-10-09T03:04:27;20.30;99.90
61004;DHT22;46889;37.310;13.582;2023-10-09T03:07:00;20.30;99.90
61004;DHT22;46889;37.310;13.582;2023-10-09T03:09:27;20.40;99.90
61004;DHT22;46889;37.310;13.582;2023-10-09T03:11:57;20.40;99.90
61004;DHT22;46889;37.310;13.582;2023-10-09T03:14:32;20.40;99.90
61004;DHT22;46889;37.310;13.582;2023-10-09T03:17:01;20.40;99.90
61004;DHT22;46889;37.310;13.582;2023-10-09T03:19:28;20.40;99.90
61004;DHT22;46889;37.310;13.582;2023-10-09T03:21:55;20.40;99.90
61004;DHT22;46889;37.310;13.582;2023-10-09T03:24:27;20.30;99.90
61004;DHT22;46889;37.310;13.582;2023-10-09T03:26:53;20.20;99.90
61004;DHT22;46889;37.310;13.582;2023-10-09T03:29:23;20.10;99.90
61004;DHT22;46889;37.310;13.582;2023-10-09T03:31:50;20.00;99.90
61004;DHT22;46889;37.310;13.582;2023-10-09T03:34:17;19.90;99.90
61004;DHT22;46889;37.310;13.582;2023-10-09T03:36:47;19.90;99.90
61004;DHT22;46889;37.310;13.582;2023-10-09T03:39:14;19.90;99.90
61004;DHT22;46889;37.310;13.582;2023-10-09T03:42:06;19.90;99.90
61004;DHT22;46889;37.310;13.582;2023-10-09T03:44:38;20.00;99.90
61004;DHT22;46889;37.310;13.582;2023-10-09T03:47:08;20.00;99.90
61004;DHT22;46889;37.310;13.582;2023-10-09T03:49:37;20.10;99.90
61004;DHT22;46889;37.310;13.582;2023-10-09T03:52:05;20.20;99.90
61004;DHT22;46889;37.310;13.582;2023-10-09T03:54:35;20.30;99.90
61004;DHT22;46889;37.310;13.582;2023-10-09T03:57:01;20.30;99.90
61004;DHT22;46889;37.310;13.582;2023-10-09T03:59:28;20.30;99.90
61004;DHT22;46889;37.310;13.582;2023-10-09T04:01:56;20.30;99.90
61004;DHT22;46889;37.310;13.582;2023-10-09T04:04:24;20.30;99.90
61004;DHT22;46889;37.310;13.582;2023-10-09T04:06:51;20.30;99.90
61004;DHT22;46889;37.310;13.582;2023-10-09T04:09:20;20.30;99.90
61004;DHT22;46889;37.310;13.582;2023-10-09T04:11:47;20.40;99.90
61004;DHT22;46889;37.310;13.582;2023-10-09T04:14:15;20.40;99.90
61004;DHT22;46889;37.310;13.582;2023-10-09T04:16:52;20.40;99.90
61004;DHT22;46889;37.310;13.582;2023-10-09T04:19:18;20.50;99.90
61004;DHT22;46889;37.310;13.582;2023-10-09T04:21:50;20.40;99.90
61004;DHT22;46889;37.310;13.582;2023-10-09T04:24:21;20.40;99.90
61004;DHT22;46889;37.310;13.582;2023-10-09T04:26:51;20.30;99.90
61004;DHT22;46889;37.310;13.582;2023-10-09T04:29:23;20.20;99.90
61004;DHT22;46889;37.310;13.582;2023-10-09T04:31:55;20.20;99.90
61004;DHT22;46889;37.310;13.582;2023-10-09T04:34:25;20.20;99.90
61004;DHT22;46889;37.310;13.582;2023-10-09T04:37:00;20.10;99.90
61004;DHT22;46889;37.310;13.582;2023-10-09T04:39:27;20.10;99.90
61004;DHT22;46889;37.310;13.582;2023-10-09T04:41:57;20.00;99.90
61004;DHT22;46889;37.310;13.582;2023-10-09T04:44:45;20.00;99.90
61004;DHT22;46889;37.310;13.582;2023-10-09T04:47:28;20.00;99.90
61004;DHT22;46889;37.310;13.582;2023-10-09T04:50:04;20.10;99.90
61004;DHT22;46889;37.310;13.582;2023-10-09T04:52:57;20.10;99.90
61004;DHT22;46889;37.310;13.582;2023-10-09T04:55:39;20.20;99.90
61004;DHT22;46889;37.310;13.582;2023-10-09T04:58:10;20.20;99.90
61004;DHT22;46889;37.310;13.582;2023-10-09T05:00:49;20.20;99.90
61004;DHT22;46889;37.310;13.582;2023-10-09T05:03:25;20.20;99.90
61004;DHT22;46889;37.310;13.582;2023-10-09T05:05:56;20.20;99.90
61004;DHT22;46889;37.310;13.582;2023-10-09T05:08:42;20.20;99.90
61004;DHT22;46889;37.310;13.582;2023-10-09T05:11:11;20.20;99.90
61004;DHT22;46889;37.310;13.582;2023-10-09T05:14:03;20.20;99.90
61004;DHT22;46889;37.310;13.582;2023-10-09T05:16:39;20.20;99.90
61004;DHT22;46889;37.310;13.582;2023-10-09T05:19:23;20.20;99.90
61004;DHT22;46889;37.310;13.582;2023-10-09T05:22:11;20.20;99.90
61004;DHT22;46889;37.310;13.582;2023-10-09T05:24:58;20.30;99.90
61004;DHT22;46889;37.310;13.582;2023-10-09T05:27:24;20.40;99.90
61004;DHT22;46889;37.310;13.582;2023-10-09T05:30:10;20.40;99.90
61004;DHT22;46889;37.310;13.582;2023-10-09T05:32:59;20.40;99.90
61004;DHT22;46889;37.310;13.582;2023-10-09T05:35:45;20.40;99.90
61004;DHT22;46889;37.310;13.582;2023-10-09T05:38:32;20.50;99.90
61004;DHT22;46889;37.310;13.582;2023-10-09T05:41:02;20.80;99.90
61004;DHT22;46889;37.310;13.582;2023-10-09T05:43:48;21.20;99.90
61004;DHT22;46889;37.310;13.582;2023-10-09T05:46:32;21.50;99.90
61004;DHT22;46889;37.310;13.582;2023-10-09T05:49:14;22.20;99.90
61004;DHT22;46889;37.310;13.582;2023-10-09T05:51:50;22.50;99.90
61004;DHT22;46889;37.310;13.582;2023-10-09T05:54:19;22.70;99.90
61004;DHT22;46889;37.310;13.582;2023-10-09T05:57:03;22.90;99.90
61004;DHT22;46889;37.310;13.582;2023-10-09T05:59:55;23.30;99.90
61004;DHT22;46889;37.310;13.582;2023-10-09T06:02:56;23.40;99.90
61004;DHT22;46889;37.310;13.582;2023-10-09T06:05:41;23.10;99.90
61004;DHT22;46889;37.310;13.582;2023-10-09T06:08:08;23.70;99.90
61004;DHT22;46889;37.310;13.582;2023-10-09T06:10:38;24.50;99.90
61004;DHT22;46889;37.310;13.582;2023-10-09T06:13:07;25.10;99.90
61004;DHT22;46889;37.310;13.582;2023-10-09T06:15:52;25.60;99.90
61004;DHT22;46889;37.310;13.582;2023-10-09T06:18:35;26.10;99.90
61004;DHT22;46889;37.310;13.582;2023-10-09T06:21:07;26.20;99.90
61004;DHT22;46889;37.310;13.582;2023-10-09T06:23:33;26.50;99.90
61004;DHT22;46889;37.310;13.582;2023-10-09T06:26:28;26.40;99.90
61004;DHT22;46889;37.310;13.582;2023-10-09T06:28:58;26.30;99.90
61004;DHT22;46889;37.310;13.582;2023-10-09T06:31:40;26.30;99.90
61004;DHT22;46889;37.310;13.582;2023-10-09T06:34:29;26.00;99.90
61004;DHT22;46889;37.310;13.582;2023-10-09T06:37:01;26.20;99.90
61004;DHT22;46889;37.310;13.582;2023-10-09T06:39:55;25.80;99.90
61004;DHT22;46889;37.310;13.582;2023-10-09T06:42:25;25.60;99.90
61004;DHT22;46889;37.310;13.582;2023-10-09T06:45:21;26.00;99.90
61004;DHT22;46889;37.310;13.582;2023-10-09T06:47:48;26.10;99.90
61004;DHT22;46889;37.310;13.582;2023-10-09T06:50:35;26.50;99.90
61004;DHT22;46889;37.310;13.582;2023-10-09T06:53:20;27.30;99.90
61004;DHT22;46889;37.310;13.582;2023-10-09T06:55:46;26.90;99.90
61004;DHT22;46889;37.310;13.582;2023-10-09T06:58:19;27.20;99.90
61004;DHT22;46889;37.310;13.582;2023-10-09T07:00:53;27.50;99.90
61004;DHT22;46889;37.310;13.582;2023-10-09T07:03:25;27.90;99.90
61004;DHT22;46889;37.310;13.582;2023-10-09T07:06:07;28.20;99.90
61004;DHT22;46889;37.310;13.582;2023-10-09T07:08:57;28.30;99.90
61004;DHT22;46889;37.310;13.582;2023-10-09T07:11:39;28.60;99.90
61004;DHT22;46889;37.310;13.582;2023-10-09T07:14:09;28.60;99.90
61004;DHT22;46889;37.310;13.582;2023-10-09T07:20:11;29.40;99.90
61004;DHT22;46889;37.310;13.582;2023-10-09T07:22:41;29.20;99.90
61004;DHT22;46889;37.310;13.582;2023-10-09T07:25:22;28.90;99.90
61004;DHT22;46889;37.310;13.582;2023-10-09T07:28:11;28.50;99.90
61004;DHT22;46889;37.310;13.582;2023-10-09T07:31:03;27.60;99.90
61004;DHT22;46889;37.310;13.582;2023-10-09T07:33:30;27.60;99.90
61004;DHT22;46889;37.310;13.582;2023-10-09T07:36:01;27.30;99.90
61004;DHT22;46889;37.310;13.582;2023-10-09T07:38:33;27.40;99.90
61004;DHT22;46889;37.310;13.582;2023-10-09T07:41:03;27.60;99.90
61004;DHT22;46889;37.310;13.582;2023-10-09T07:43:39;27.60;99.90
61004;DHT22;46889;37.310;13.582;2023-10-09T07:46:10;27.30;99.90
61004;DHT22;46889;37.310;13.582;2023-10-09T07:48:56;27.00;99.90
61004;DHT22;46889;37.310;13.582;2023-10-09T07:51:23;27.00;99.90
61004;DHT22;46889;37.310;13.582;2023-10-09T07:53:57;27.40;99.90
61004;DHT22;46889;37.310;13.582;2023-10-09T07:56:39;27.50;99.90
61004;DHT22;46889;37.310;13.582;2023-10-09T07:59:14;27.40;99.90
61004;DHT22;46889;37.310;13.582;2023-10-09T08:01:45;27.20;99.90
61004;DHT22;46889;37.310;13.582;2023-10-09T08:04:23;27.00;99.90
61004;DHT22;46889;37.310;13.582;2023-10-09T08:07:06;27.30;99.90
61004;DHT22;46889;37.310;13.582;2023-10-09T08:09:33;27.30;99.90
61004;DHT22;46889;37.310;13.582;2023-10-09T08:12:13;27.60;99.90
61004;DHT22;46889;37.310;13.582;2023-10-09T08:14:42;27.60;99.90
61004;DHT22;46889;37.310;13.582;2023-10-09T08:17:14;27.60;99.90
61004;DHT22;46889;37.310;13.582;2023-10-09T08:20:07;27.80;99.90
61004;DHT22;46889;37.310;13.582;2023-10-09T08:22:43;27.60;99.90
61004;DHT22;46889;37.310;13.582;2023-10-09T08:25:12;27.60;99.90
61004;DHT22;46889;37.310;13.582;2023-10-09T08:28:14;27.70;99.90
61004;DHT22;46889;37.310;13.582;2023-10-09T08:30:40;27.90;99.90
61004;DHT22;46889;37.310;13.582;2023-10-09T08:33:21;28.10;99.90
61004;DHT22;46889;37.310;13.582;2023-10-09T08:35:56;28.20;99.90
61004;DHT22;46889;37.310;13.582;2023-10-09T08:38:33;28.00;99.90
61004;DHT22;46889;37.310;13.582;2023-10-09T08:41:10;27.70;99.90
61004;DHT22;46889;37.310;13.582;2023-10-09T08:43:52;27.80;99.90
61004;DHT22;46889;37.310;13.582;2023-10-09T08:46:26;28.00;99.90
61004;DHT22;46889;37.310;13.582;2023-10-09T08:48:59;28.00;99.90
61004;DHT22;46889;37.310;13.582;2023-10-09T08:51:26;28.10;99.90
61004;DHT22;46889;37.310;13.582;2023-10-09T08:53:53;28.10;99.90
61004;DHT22;46889;37.310;13.582;2023-10-09T08:56:21;28.40;99.90
61004;DHT22;46889;37.310;13.582;2023-10-09T08:58:57;28.40;99.90
61004;DHT22;46889;37.310;13.582;2023-10-09T09:01:24;28.20;99.90
61004;DHT22;46889;37.310;13.582;2023-10-09T09:03:52;28.40;99.90
61004;DHT22;46889;37.310;13.582;2023-10-09T09:06:21;28.70;99.90
61004;DHT22;46889;37.310;13.582;2023-10-09T09:08:50;28.80;99.90
61004;DHT22;46889;37.310;13.582;2023-10-09T09:11:30;28.80;99.90
61004;DHT22;46889;37.310;13.582;2023-10-09T09:16:33;29.00;99.90
61004;DHT22;46889;37.310;13.582;2023-10-09T09:19:05;28.80;99.90
61004;DHT22;46889;37.310;13.582;2023-10-09T09:21:39;29.20;99.90
61004;DHT22;46889;37.310;13.582;2023-10-09T09:24:11;29.00;99.90
61004;DHT22;46889;37.310;13.582;2023-10-09T09:26:50;29.20;99.90
61004;DHT22;46889;37.310;13.582;2023-10-09T09:29:40;29.20;99.90
61004;DHT22;46889;37.310;13.582;2023-10-09T09:32:16;29.50;99.90
61004;DHT22;46889;37.310;13.582;2023-10-09T09:34:52;29.40;99.90
61004;DHT22;46889;37.310;13.582;2023-10-09T09:37:28;29.70;99.90
61004;DHT22;46889;37.310;13.582;2023-10-09T09:39:58;30.00;99.90
61004;DHT22;46889;37.310;13.582;2023-10-09T09:42:28;30.00;99.90
61004;DHT22;46889;37.310;13.582;2023-10-09T09:45:00;30.20;99.90
61004;DHT22;46889;37.310;13.582;2023-10-09T09:47:27;30.10;99.90
61004;DHT22;46889;37.310;13.582;2023-10-09T09:49:53;30.00;99.90
61004;DHT22;46889;37.310;13.582;2023-10-09T09:52:34;29.90;99.90
61004;DHT22;46889;37.310;13.582;2023-10-09T09:55:10;29.90;99.90
61004;DHT22;46889;37.310;13.582;2023-10-09T09:57:48;29.90;99.90
61004;DHT22;46889;37.310;13.582;2023-10-09T10:00:20;29.50;99.90
61004;DHT22;46889;37.310;13.582;2023-10-09T10:03:05;29.60;99.90
61004;DHT22;46889;37.310;13.582;2023-10-09T10:05:34;29.90;99.90
61004;DHT22;46889;37.310;13.582;2023-10-09T10:08:00;30.00;99.90
61004;DHT22;46889;37.310;13.582;2023-10-09T10:10:37;29.90;99.90
61004;DHT22;46889;37.310;13.582;2023-10-09T10:13:05;29.80;99.90
61004;DHT22;46889;37.310;13.582;2023-10-09T10:18:32;29.70;99.90
61004;DHT22;46889;37.310;13.582;2023-10-09T10:21:11;29.90;99.90
61004;DHT22;46889;37.310;13.582;2023-10-09T10:23:44;30.00;99.90
61004;DHT22;46889;37.310;13.582;2023-10-09T10:26:23;30.10;99.90
61004;DHT22;46889;37.310;13.582;2023-10-09T10:29:17;30.10;99.90
61004;DHT22;46889;37.310;13.582;2023-10-09T10:31:53;30.10;99.90
61004;DHT22;46889;37.310;13.582;2023-10-09T10:34:25;30.20;99.90
61004;DHT22;46889;37.310;13.582;2023-10-09T10:36:53;30.40;99.90
61004;DHT22;46889;37.310;13.582;2023-10-09T10:39:31;30.40;99.90
61004;DHT22;46889;37.310;13.582;2023-10-09T10:42:10;30.30;99.90
61004;DHT22;46889;37.310;13.582;2023-10-09T10:44:56;30.10;99.90
61004;DHT22;46889;37.310;13.582;2023-10-09T10:47:27;30.10;99.90
61004;DHT22;46889;37.310;13.582;2023-10-09T10:50:02;30.10;99.90
61004;DHT22;46889;37.310;13.582;2023-10-09T10:52:48;30.30;99.90
61004;DHT22;46889;37.310;13.582;2023-10-09T10:55:23;30.30;99.90
61004;DHT22;46889;37.310;13.582;2023-10-09T10:57:55;30.20;99.90
61004;DHT22;46889;37.310;13.582;2023-10-09T11:00:27;30.30;99.90
61004;DHT22;46889;37.310;13.582;2023-10-09T11:03:19;30.40;99.90
61004;DHT22;46889;37.310;13.582;2023-10-09T11:05:56;30.30;99.90
61004;DHT22;46889;37.310;13.582;2023-10-09T11:08:47;30.20;99.90
61004;DHT22;46889;37.310;13.582;2023-10-09T11:11:20;30.00;99.90
61004;DHT22;46889;37.310;13.582;2023-10-09T11:13:47;30.00;99.90
61004;DHT22;46889;37.310;13.582;2023-10-09T11:16:31;30.00;99.90
61004;DHT22;46889;37.310;13.582;2023-10-09T11:19:00;30.30;99.90
61004;DHT22;46889;37.310;13.582;2023-10-09T11:21:38;30.20;99.90
61004;DHT22;46889;37.310;13.582;2023-10-09T11:24:08;30.30;99.90
61004;DHT22;46889;37.310;13.582;2023-10-09T11:26:50;30.20;99.90
61004;DHT22;46889;37.310;13.582;2023-10-09T11:29:22;30.30;99.90
61004;DHT22;46889;37.310;13.582;2023-10-09T11:32:03;30.40;99.90
61004;DHT22;46889;37.310;13.582;2023-10-09T11:34:32;30.60;99.90
61004;DHT22;46889;37.310;13.582;2023-10-09T11:37:02;30.70;99.90
61004;DHT22;46889;37.310;13.582;2023-10-09T11:39:31;30.60;99.90
61004;DHT22;46889;37.310;13.582;2023-10-09T11:42:05;30.80;99.90
61004;DHT22;46889;37.310;13.582;2023-10-09T11:44:41;30.70;99.90
61004;DHT22;46889;37.310;13.582;2023-10-09T11:47:11;30.90;99.90
61004;DHT22;46889;37.310;13.582;2023-10-09T11:49:54;30.90;99.90
61004;DHT22;46889;37.310;13.582;2023-10-09T11:52:29;31.10;99.90
61004;DHT22;46889;37.310;13.582;2023-10-09T11:55:05;31.20;99.90
61004;DHT22;46889;37.310;13.582;2023-10-09T11:57:33;31.10;99.90
61004;DHT22;46889;37.310;13.582;2023-10-09T12:00:04;31.20;99.90
61004;DHT22;46889;37.310;13.582;2023-10-09T12:02:38;31.20;99.90
61004;DHT22;46889;37.310;13.582;2023-10-09T12:05:10;31.10;99.90
61004;DHT22;46889;37.310;13.582;2023-10-09T12:07:44;30.90;99.90
61004;DHT22;46889;37.310;13.582;2023-10-09T12:10:11;30.90;99.90
61004;DHT22;46889;37.310;13.582;2023-10-09T12:12:40;31.10;99.90
61004;DHT22;46889;37.310;13.582;2023-10-09T12:15:10;31.10;99.90
61004;DHT22;46889;37.310;13.582;2023-10-09T12:17:46;30.90;99.90
61004;DHT22;46889;37.310;13.582;2023-10-09T12:20:16;30.70;99.90
61004;DHT22;46889;37.310;13.582;2023-10-09T12:23:04;31.10;99.60
61004;DHT22;46889;37.310;13.582;2023-10-09T12:25:32;31.30;98.60
61004;DHT22;46889;37.310;13.582;2023-10-09T12:28:00;31.50;98.10
61004;DHT22;46889;37.310;13.582;2023-10-09T12:30:30;31.70;97.80
61004;DHT22;46889;37.310;13.582;2023-10-09T12:32:57;31.50;97.80
61004;DHT22;46889;37.310;13.582;2023-10-09T12:35:25;31.50;97.50
61004;DHT22;46889;37.310;13.582;2023-10-09T12:37:52;31.30;97.70
61004;DHT22;46889;37.310;13.582;2023-10-09T12:40:22;31.20;97.80
61004;DHT22;46889;37.310;13.582;2023-10-09T12:42:57;31.10;96.70
61004;DHT22;46889;37.310;13.582;2023-10-09T12:45:29;31.10;98.00
61004;DHT22;46889;37.310;13.582;2023-10-09T12:48:01;31.30;97.70
61004;DHT22;46889;37.310;13.582;2023-10-09T12:50:35;31.60;96.30
61004;DHT22;46889;37.310;13.582;2023-10-09T12:53:08;31.50;96.60
61004;DHT22;46889;37.310;13.582;2023-10-09T12:55:38;31.40;97.00
61004;DHT22;46889;37.310;13.582;2023-10-09T12:58:08;31.40;96.50
61004;DHT22;46889;37.310;13.582;2023-10-09T13:00:36;31.60;96.00
61004;DHT22;46889;37.310;13.582;2023-10-09T13:03:12;31.60;95.00
61004;DHT22;46889;37.310;13.582;2023-10-09T13:05:50;31.70;96.00
61004;DHT22;46889;37.310;13.582;2023-10-09T13:08:28;31.40;96.50
61004;DHT22;46889;37.310;13.582;2023-10-09T13:11:07;31.40;97.80
61004;DHT22;46889;37.310;13.582;2023-10-09T13:13:37;31.50;98.40
61004;DHT22;46889;37.310;13.582;2023-10-09T13:16:12;31.60;99.50
61004;DHT22;46889;37.310;13.582;2023-10-09T13:18:43;31.60;99.90
61004;DHT22;46889;37.310;13.582;2023-10-09T13:21:20;31.40;99.90
61004;DHT22;46889;37.310;13.582;2023-10-09T13:23:46;31.50;99.90
61004;DHT22;46889;37.310;13.582;2023-10-09T13:26:22;31.40;99.90
61004;DHT22;46889;37.310;13.582;2023-10-09T13:28:57;31.60;99.90
61004;DHT22;46889;37.310;13.582;2023-10-09T13:31:24;31.80;99.90
61004;DHT22;46889;37.310;13.582;2023-10-09T13:33:54;31.60;99.70
61004;DHT22;46889;37.310;13.582;2023-10-09T13:36:30;31.80;99.40
61004;DHT22;46889;37.310;13.582;2023-10-09T13:39:02;31.80;98.80
61004;DHT22;46889;37.310;13.582;2023-10-09T13:41:46;31.40;98.60
61004;DHT22;46889;37.310;13.582;2023-10-09T13:44:13;31.40;97.60
61004;DHT22;46889;37.310;13.582;2023-10-09T13:46:39;31.20;97.00
61004;DHT22;46889;37.310;13.582;2023-10-09T13:49:09;31.00;97.10
61004;DHT22;46889;37.310;13.582;2023-10-09T13:51:43;30.90;97.40
61004;DHT22;46889;37.310;13.582;2023-10-09T13:54:13;30.80;96.60
61004;DHT22;46889;37.310;13.582;2023-10-09T13:57:08;30.60;96.70
61004;DHT22;46889;37.310;13.582;2023-10-09T13:59:36;30.50;96.80
61004;DHT22;46889;37.310;13.582;2023-10-09T14:02:08;30.50;97.10
61004;DHT22;46889;37.310;13.582;2023-10-09T14:04:43;30.60;97.70
61004;DHT22;46889;37.310;13.582;2023-10-09T14:07:09;30.90;97.40
61004;DHT22;46889;37.310;13.582;2023-10-09T14:09:36;31.10;97.00
61004;DHT22;46889;37.310;13.582;2023-10-09T14:12:10;31.10;96.90
61004;DHT22;46889;37.310;13.582;2023-10-09T14:14:43;30.80;97.50
61004;DHT22;46889;37.310;13.582;2023-10-09T14:17:23;30.50;97.60
61004;DHT22;46889;37.310;13.582;2023-10-09T14:19:50;30.60;97.10
61004;DHT22;46889;37.310;13.582;2023-10-09T14:22:21;30.70;96.70
61004;DHT22;46889;37.310;13.582;2023-10-09T14:24:50;30.50;96.80
61004;DHT22;46889;37.310;13.582;2023-10-09T14:27:25;30.00;96.70
61004;DHT22;46889;37.310;13.582;2023-10-09T14:29:53;29.80;96.70
61004;DHT22;46889;37.310;13.582;2023-10-09T14:32:25;29.90;96.70
61004;DHT22;46889;37.310;13.582;2023-10-09T14:34:57;30.10;96.70
61004;DHT22;46889;37.310;13.582;2023-10-09T14:37:27;30.10;96.20
61004;DHT22;46889;37.310;13.582;2023-10-09T14:39:53;30.10;96.70
61004;DHT22;46889;37.310;13.582;2023-10-09T14:42:21;29.80;96.80
61004;DHT22;46889;37.310;13.582;2023-10-09T14:44:50;29.90;97.10
61004;DHT22;46889;37.310;13.582;2023-10-09T14:47:16;29.60;97.40
61004;DHT22;46889;37.310;13.582;2023-10-09T14:49:47;29.60;97.70
61004;DHT22;46889;37.310;13.582;2023-10-09T14:52:14;29.70;97.60
61004;DHT22;46889;37.310;13.582;2023-10-09T14:54:46;29.80;97.80
61004;DHT22;46889;37.310;13.582;2023-10-09T14:57:13;29.90;98.20
61004;DHT22;46889;37.310;13.582;2023-10-09T14:59:39;29.90;98.40
61004;DHT22;46889;37.310;13.582;2023-10-09T15:02:05;29.70;99.10
61004;DHT22;46889;37.310;13.582;2023-10-09T15:04:33;29.40;99.60
61004;DHT22;46889;37.310;13.582;2023-10-09T15:07:03;29.40;99.90
61004;DHT22;46889;37.310;13.582;2023-10-09T15:09:33;29.40;99.90
61004;DHT22;46889;37.310;13.582;2023-10-09T15:12:02;29.20;99.90
61004;DHT22;46889;37.310;13.582;2023-10-09T15:14:28;29.20;99.90
61004;DHT22;46889;37.310;13.582;2023-10-09T15:16:54;29.00;99.90
61004;DHT22;46889;37.310;13.582;2023-10-09T15:19:20;28.90;99.90
61004;DHT22;46889;37.310;13.582;2023-10-09T15:21:57;28.70;99.90
61004;DHT22;46889;37.310;13.582;2023-10-09T15:24:24;28.70;99.90
61004;DHT22;46889;37.310;13.582;2023-10-09T15:26:52;28.40;99.90
61004;DHT22;46889;37.310;13.582;2023-10-09T15:29:20;28.30;99.90
61004;DHT22;46889;37.310;13.582;2023-10-09T15:31:57;28.40;99.90
61004;DHT22;46889;37.310;13.582;2023-10-09T15:34:32;28.30;99.90
61004;DHT22;46889;37.310;13.582;2023-10-09T15:37:00;28.20;99.90
61004;DHT22;46889;37.310;13.582;2023-10-09T15:39:26;28.00;99.90
61004;DHT22;46889;37.310;13.582;2023-10-09T15:41:52;27.80;99.90
61004;DHT22;46889;37.310;13.582;2023-10-09T15:44:18;27.80;99.90
61004;DHT22;46889;37.310;13.582;2023-10-09T15:46:44;27.70;99.90
61004;DHT22;46889;37.310;13.582;2023-10-09T15:49:13;27.60;99.90
61004;DHT22;46889;37.310;13.582;2023-10-09T15:51:42;27.50;99.90
61004;DHT22;46889;37.310;13.582;2023-10-09T15:54:09;27.40;99.90
61004;DHT22;46889;37.310;13.582;2023-10-09T15:56:38;27.40;99.90
61004;DHT22;46889;37.310;13.582;2023-10-09T15:59:08;27.30;99.90
61004;DHT22;46889;37.310;13.582;2023-10-09T16:01:34;27.30;99.90
61004;DHT22;46889;37.310;13.582;2023-10-09T16:04:01;27.30;99.90
61004;DHT22;46889;37.310;13.582;2023-10-09T16:06:27;27.30;99.90
61004;DHT22;46889;37.310;13.582;2023-10-09T16:08:58;27.30;99.90